Time;durP1;ratioP1;P1;durP2;ratioP2;P2;SDS_P1;SDS_P2;PMS_P1;PMS_P2;Temp;Humidity;BMP_temperature;BMP_pressure;BME280_temperature;BME280_humidity;BME280_pressure;Samples;Min_cycle;Max_cycle;Signal;HPM_P1;HPM_P2
2021/07/10 00:02:03;;;;;;;13.10;5.63;;;;;;;24.13;50.19;100233.22;6157212;23;20089;-72
2021/07/10 00:04:29;;;;;;;15.68;6.43;;;;;;;24.08;50.19;100224.75;6183768;23;20020;-71
2021/07/10 00:06:57;;;;;;;13.60;6.28;;;;;;;23.98;50.32;100227.84;6183801;23;20016;-73
2021/07/10 00:09:22;;;;;;;12.88;6.00;;;;;;;24.02;50.51;100231.03;6183514;23;20005;-73
2021/07/10 00:11:48;;;;;;;10.52;5.72;;;;;;;23.79;50.77;100202.09;6132523;23;20020;-72
2021/07/10 00:14:14;;;;;;;13.85;6.57;;;;;;;23.96;51.08;100235.41;6157251;23;20101;-71
2021/07/10 00:16:39;;;;;;;14.05;6.85;;;;;;;23.89;51.06;100227.19;6183603;23;20013;-73
2021/07/10 00:19:05;;;;;;;13.63;6.85;;;;;;;23.87;51.41;100232.00;6183829;23;20005;-70
2021/07/10 00:21:31;;;;;;;16.58;7.10;;;;;;;23.85;51.69;100230.50;6184498;23;20024;-68
2021/07/10 00:23:57;;;;;;;12.88;7.07;;;;;;;23.78;51.45;100227.72;6185018;23;20423;-71
2021/07/10 00:26:22;;;;;;;17.52;6.63;;;;;;;23.58;51.88;100198.38;6183788;23;20103;-72
2021/07/10 00:28:48;;;;;;;15.20;6.82;;;;;;;23.74;52.33;100231.91;6132443;23;20419;-73
2021/07/10 00:31:13;;;;;;;14.82;7.00;;;;;;;23.70;52.22;100234.19;6156969;23;20016;-70
2021/07/10 00:33:39;;;;;;;14.50;6.68;;;;;;;23.65;52.16;100232.09;6183567;23;20001;-71
2021/07/10 00:36:04;;;;;;;13.90;7.18;;;;;;;23.64;51.95;100230.41;6183593;23;20040;-66
2021/07/10 00:38:30;;;;;;;14.63;6.90;;;;;;;23.58;52.56;100222.97;6182956;23;20028;-61
2021/07/10 00:40:55;;;;;;;14.98;7.05;;;;;;;23.55;52.61;100225.28;6156918;23;20486;-73
2021/07/10 00:43:21;;;;;;;10.82;6.97;;;;;;;23.53;52.71;100228.22;6183481;23;20067;-66
2021/07/10 00:45:47;;;;;;;19.15;6.93;;;;;;;23.53;52.62;100228.22;6182948;23;20084;-71
2021/07/10 00:48:14;;;;;;;11.13;6.68;;;;;;;23.53;52.95;100236.41;6156791;23;20088;-73
2021/07/10 00:50:40;;;;;;;17.00;6.78;;;;;;;23.55;52.98;100239.78;6183140;23;20008;-73
2021/07/10 00:53:06;;;;;;;16.58;7.18;;;;;;;23.55;52.96;100237.06;6184541;23;20027;-71
2021/07/10 00:55:31;;;;;;;16.30;7.57;;;;;;;23.56;53.16;100233.28;6194376;23;20053;-70
2021/07/10 00:58:00;;;;;;;13.10;7.22;;;;;;;23.42;52.84;100209.66;6183153;23;20028;-72
2021/07/10 01:00:26;;;;;;;13.05;7.13;;;;;;;23.59;52.83;100235.59;6183605;23;20156;-71
2021/07/10 01:02:54;;;;;;;17.35;7.43;;;;;;;23.60;52.75;100248.22;6183465;23;20040;-73
2021/07/10 01:05:31;;;;;;;10.90;6.95;;;;;;;23.69;52.50;100242.63;6183194;23;20224;-72
2021/07/10 01:07:58;;;;;;;15.57;7.35;;;;;;;23.58;52.97;100253.03;6183436;23;19997;-72
2021/07/10 01:10:24;;;;;;;9.73;6.78;;;;;;;23.57;52.96;100251.34;6156517;23;20059;-73
2021/07/10 01:12:53;;;;;;;13.05;7.00;;;;;;;23.45;52.98;100222.91;6156504;23;20032;-72
2021/07/10 01:15:21;;;;;;;12.38;6.70;;;;;;;23.55;53.02;100247.97;6157399;23;20017;-72
2021/07/10 01:17:47;;;;;;;15.20;6.93;;;;;;;23.33;53.24;100211.69;6182595;23;20060;-71
2021/07/10 01:20:16;;;;;;;12.10;7.00;;;;;;;23.55;52.84;100249.88;6156137;23;20009;-72
2021/07/10 01:22:42;;;;;;;13.55;7.75;;;;;;;23.54;53.14;100243.56;6183076;23;20001;-74
2021/07/10 01:25:11;;;;;;;11.30;7.07;;;;;;;23.56;52.90;100246.94;6182252;23;20123;-72
2021/07/10 01:27:37;;;;;;;12.93;8.07;;;;;;;23.55;52.91;100253.44;6182579;23;20004;-72
2021/07/10 01:30:09;;;;;;;13.05;7.15;;;;;;;23.65;52.63;100247.63;6182480;23;20005;-73
2021/07/10 01:32:36;;;;;;;12.20;6.88;;;;;;;23.59;52.90;100252.00;6182687;23;20288;-72
2021/07/10 01:35:03;;;;;;;10.95;6.80;;;;;;;23.59;52.75;100246.53;6182232;23;20331;-70
2021/07/10 01:37:28;;;;;;;12.55;6.80;;;;;;;23.58;52.91;100242.09;6156467;23;20009;-71
2021/07/10 01:39:53;;;;;;;16.15;7.30;;;;;;;23.57;53.19;100237.69;6182065;23;20016;-72
2021/07/10 01:42:20;;;;;;;10.60;6.72;;;;;;;23.59;53.25;100242.97;6132298;23;20013;-71
2021/07/10 01:44:47;;;;;;;15.27;6.97;;;;;;;23.61;52.86;100244.44;6182453;23;20025;-71
2021/07/10 01:47:13;;;;;;;10.68;6.70;;;;;;;23.45;53.09;100218.28;6182763;23;20005;-72
2021/07/10 01:49:38;;;;;;;12.88;7.13;;;;;;;23.64;52.69;100246.81;6182382;23;20011;-69
2021/07/10 01:52:04;;;;;;;9.88;6.78;;;;;;;23.67;53.04;100244.72;6182274;23;20051;-71
2021/07/10 01:54:30;;;;;;;9.98;6.32;;;;;;;23.69;53.08;100245.34;6182426;23;20023;-66
2021/07/10 01:56:55;;;;;;;12.65;7.28;;;;;;;23.71;53.10;100240.53;6183098;23;20309;-71
2021/07/10 01:59:21;;;;;;;13.55;6.78;;;;;;;23.73;53.03;100250.19;6182351;23;20001;-72
2021/07/10 02:01:47;;;;;;;15.57;6.88;;;;;;;23.73;52.82;100227.50;6182346;23;20005;-71
2021/07/10 02:04:15;;;;;;;10.98;7.15;;;;;;;23.80;53.27;100240.16;6182782;23;20061;-70
2021/07/10 02:06:42;;;;;;;12.80;6.50;;;;;;;23.82;52.88;100242.69;6182283;23;20001;-71
2021/07/10 02:09:09;;;;;;;11.30;6.57;;;;;;;23.86;52.70;100243.13;6182530;23;20063;-68
2021/07/10 02:11:35;;;;;;;11.27;7.25;;;;;;;23.87;53.04;100242.94;6182188;23;20037;-70
2021/07/10 02:14:01;;;;;;;14.93;7.28;;;;;;;23.89;52.66;100243.59;6181831;23;20013;-68
2021/07/10 02:16:27;;;;;;;11.45;7.53;;;;;;;23.91;52.58;100236.03;6182369;23;20091;-69
2021/07/10 02:18:52;;;;;;;13.68;7.28;;;;;;;23.94;52.58;100234.75;6182125;23;20013;-70
2021/07/10 02:21:18;;;;;;;13.77;7.63;;;;;;;23.99;52.16;100247.84;6182510;23;20005;-71
2021/07/10 02:23:44;;;;;;;11.90;7.10;;;;;;;24.01;52.53;100237.53;6182136;23;20008;-71
2021/07/10 02:26:09;;;;;;;11.32;7.05;;;;;;;24.04;52.26;100235.28;6155945;23;20013;-70
2021/07/10 02:28:34;;;;;;;15.02;6.72;;;;;;;23.97;52.05;100228.88;6182098;23;20059;-70
2021/07/10 02:31:00;;;;;;;10.38;6.53;;;;;;;24.11;51.90;100229.81;6183329;23;20001;-67
2021/07/10 02:33:25;;;;;;;12.52;7.10;;;;;;;24.26;51.39;100234.31;6184965;23;20012;-71
2021/07/10 02:35:51;;;;;;;12.20;7.20;;;;;;;24.36;51.64;100232.88;6184523;23;20474;-73
2021/07/10 02:38:17;;;;;;;15.07;7.75;;;;;;;24.44;51.04;100225.53;6133863;23;20084;-72
2021/07/10 02:40:42;;;;;;;16.15;7.40;;;;;;;24.53;50.59;100235.25;6186339;23;20453;-71
2021/07/10 02:43:08;;;;;;;12.52;6.70;;;;;;;24.61;50.23;100226.00;6186779;23;20048;-72
2021/07/10 02:45:35;;;;;;;9.27;6.85;;;;;;;24.72;50.37;100235.53;6184565;23;20073;-72
2021/07/10 02:48:02;;;;;;;13.65;6.68;;;;;;;24.77;50.01;100228.38;6185173;23;20001;-65
2021/07/10 02:50:28;;;;;;;10.07;6.07;;;;;;;24.88;49.77;100224.19;6185461;23;20079;-71
2021/07/10 02:52:54;;;;;;;9.05;6.90;;;;;;;25.04;49.42;100231.16;6184704;23;20096;-72
2021/07/10 02:55:24;;;;;;;11.45;6.88;;;;;;;25.18;48.62;100229.25;6184698;23;20850;-74
2021/07/10 02:57:50;;;;;;;14.10;6.30;;;;;;;25.21;48.32;100211.56;6188456;23;20016;-74
2021/07/10 03:00:18;;;;;;;13.45;6.40;;;;;;;25.39;48.43;100224.59;6194525;23;20016;-73
2021/07/10 03:02:44;;;;;;;11.77;6.57;;;;;;;25.44;48.51;100221.25;6194672;23;20012;-74
2021/07/10 03:05:10;;;;;;;15.05;7.35;;;;;;;25.49;47.87;100222.31;6184941;23;20115;-74
2021/07/10 03:07:39;;;;;;;14.32;6.70;;;;;;;25.69;47.85;100226.94;6159192;23;20007;-71
2021/07/10 03:10:07;;;;;;;14.15;7.10;;;;;;;25.91;46.90;100208.28;6184999;23;20005;-73
2021/07/10 03:12:32;;;;;;;13.80;7.20;;;;;;;26.13;46.33;100182.47;6157783;23;20322;-72
2021/07/10 03:14:58;;;;;;;20.77;7.80;;;;;;;26.54;45.60;100214.16;6157192;23;20047;-72
2021/07/10 03:17:23;;;;;;;17.42;7.07;;;;;;;26.87;44.95;100218.59;6183895;23;20020;-71
2021/07/10 03:19:49;;;;;;;17.60;7.03;;;;;;;27.29;43.67;100215.34;6184716;23;20387;-73
2021/07/10 03:22:14;;;;;;;13.88;6.55;;;;;;;27.73;42.42;100211.75;6184366;23;19998;-73
2021/07/10 03:24:40;;;;;;;14.18;6.85;;;;;;;28.22;41.60;100209.94;6183419;23;20005;-73
2021/07/10 03:27:05;;;;;;;17.83;7.20;;;;;;;28.64;40.00;100202.78;6185448;23;20005;-72
2021/07/10 03:29:31;;;;;;;10.15;5.75;;;;;;;29.22;38.63;100212.25;6134428;23;20044;-70
2021/07/10 03:31:56;;;;;;;12.30;6.30;;;;;;;29.85;37.68;100203.50;6186887;23;20031;-72
2021/07/10 03:34:22;;;;;;;13.57;6.45;;;;;;;30.53;35.96;100200.19;6158200;23;20056;-72
2021/07/10 03:36:47;;;;;;;12.75;5.88;;;;;;;31.06;35.22;100209.13;6183550;23;20335;-72
2021/07/10 03:39:13;;;;;;;12.50;6.38;;;;;;;31.38;34.37;100204.13;6183996;23;20012;-73
2021/07/10 03:41:38;;;;;;;13.15;5.50;;;;;;;31.77;33.50;100204.13;6183385;23;20312;-74
2021/07/10 03:44:04;;;;;;;15.07;5.57;;;;;;;32.21;32.25;100190.28;6183514;23;20005;-71
2021/07/10 03:46:29;;;;;;;12.48;6.07;;;;;;;32.43;32.11;100175.59;6183555;23;20423;-72
2021/07/10 03:48:55;;;;;;;11.15;6.10;;;;;;;32.91;30.86;100188.78;6183322;23;20001;-70
2021/07/10 03:51:22;;;;;;;10.00;6.30;;;;;;;33.40;30.18;100192.47;6183603;23;20012;-73
2021/07/10 03:53:47;;;;;;;13.40;6.35;;;;;;;34.07;28.96;100190.09;6157215;23;20005;-73
2021/07/10 03:56:14;;;;;;;10.00;6.35;;;;;;;34.89;27.54;100196.91;6183836;23;20050;-73
2021/07/10 03:58:40;;;;;;;11.93;6.15;;;;;;;35.70;26.68;100197.09;6183784;23;20016;-72
2021/07/10 04:01:05;;;;;;;12.02;6.60;;;;;;;36.35;25.58;100187.06;6183917;23;20001;-73
2021/07/10 04:03:31;;;;;;;13.05;6.60;;;;;;;36.84;24.99;100184.50;6183426;23;20005;-72
2021/07/10 04:05:56;;;;;;;16.25;6.53;;;;;;;37.22;24.43;100187.53;6184193;23;20089;-73
2021/07/10 04:08:22;;;;;;;11.63;6.68;;;;;;;37.80;23.73;100188.59;6184124;23;20029;-73
2021/07/10 04:10:48;;;;;;;12.63;6.07;;;;;;;38.39;22.91;100193.13;6157094;23;20486;-73
2021/07/10 04:13:14;;;;;;;14.35;7.18;;;;;;;38.83;22.23;100185.50;6183317;23;20045;-73
2021/07/10 04:15:40;;;;;;;8.48;6.72;;;;;;;39.29;20.85;100190.25;6183480;23;20431;-73
2021/07/10 04:18:05;;;;;;;10.38;6.60;;;;;;;39.63;20.90;100179.81;6157079;23;20009;-70
2021/07/10 04:20:31;;;;;;;7.78;6.05;;;;;;;39.44;20.58;100189.19;6183342;23;20009;-70
2021/07/10 04:22:56;;;;;;;11.70;6.28;;;;;;;38.96;21.27;100181.91;6183706;23;20072;-73
2021/07/10 04:25:22;;;;;;;9.98;5.93;;;;;;;38.24;22.13;100183.00;6183931;23;20008;-71
2021/07/10 04:27:47;;;;;;;6.80;5.57;;;;;;;37.40;23.34;100185.94;6183091;23;20001;-74
2021/07/10 04:30:16;;;;;;;8.73;6.18;;;;;;;36.54;24.62;100194.78;6157073;23;20012;-71
2021/07/10 04:32:42;;;;;;;9.80;5.50;;;;;;;35.58;25.61;100200.22;6182707;23;20431;-74
2021/07/10 04:35:10;;;;;;;12.73;5.63;;;;;;;34.81;26.82;100198.28;6183712;23;20447;-71
2021/07/10 04:37:35;;;;;;;8.65;5.75;;;;;;;34.44;27.02;100191.00;6183476;23;20011;-72
2021/07/10 04:40:01;;;;;;;8.38;6.10;;;;;;;34.45;27.65;100190.72;6182694;23;20005;-70
2021/07/10 04:42:27;;;;;;;11.68;6.25;;;;;;;34.24;27.80;100194.56;6183580;23;20016;-72
2021/07/10 04:44:53;;;;;;;10.88;6.10;;;;;;;34.40;27.43;100179.59;6131966;23;20001;-73
2021/07/10 04:47:19;;;;;;;8.80;6.20;;;;;;;34.53;27.77;100185.78;6183190;23;20001;-71
2021/07/10 04:49:44;;;;;;;14.13;6.53;;;;;;;33.97;28.00;100178.91;6155942;23;20023;-73
2021/07/10 04:52:10;;;;;;;11.80;6.13;;;;;;;33.33;29.28;100174.13;6156617;23;20075;-72
2021/07/10 04:54:36;;;;;;;12.50;6.97;;;;;;;33.30;29.93;100194.09;6182935;23;20419;-73
2021/07/10 04:57:02;;;;;;;13.40;5.88;;;;;;;33.64;29.40;100177.09;6182947;23;20058;-72
2021/07/10 04:59:27;;;;;;;14.02;5.95;;;;;;;34.87;27.45;100177.72;6183474;23;20428;-72
2021/07/10 05:01:53;;;;;;;13.35;5.80;;;;;;;36.79;24.76;100168.66;6184895;23;20016;-72
2021/07/10 05:04:18;;;;;;;19.05;6.82;;;;;;;38.66;22.42;100163.66;6183321;23;20005;-73
2021/07/10 05:06:44;;;;;;;18.60;6.63;;;;;;;40.28;20.72;100177.09;6157096;23;20008;-72
2021/07/10 05:09:09;;;;;;;12.85;5.88;;;;;;;41.64;18.59;100169.69;6156007;23;20079;-71
2021/07/10 05:11:35;;;;;;;11.95;5.93;;;;;;;42.65;17.94;100168.00;6183031;23;20036;-73
2021/07/10 05:14:00;;;;;;;11.60;6.13;;;;;;;43.59;16.61;100164.41;6182844;23;20474;-68
2021/07/10 05:16:26;;;;;;;16.75;6.13;;;;;;;44.33;16.08;100171.72;6183288;23;20009;-73
2021/07/10 05:18:51;;;;;;;13.80;6.13;;;;;;;45.00;15.73;100177.44;6182936;23;20033;-73
2021/07/10 05:21:17;;;;;;;9.45;6.35;;;;;;;45.63;14.69;100164.19;6156222;23;20013;-73
2021/07/10 05:23:42;;;;;;;10.20;5.88;;;;;;;46.23;14.13;100168.47;6182974;23;20300;-72
2021/07/10 05:26:09;;;;;;;9.55;6.00;;;;;;;46.54;13.59;100158.44;6182554;23;20051;-73
2021/07/10 05:28:35;;;;;;;8.50;5.40;;;;;;;47.12;13.14;100168.53;6182550;23;20079;-73
2021/07/10 05:31:01;;;;;;;13.27;5.68;;;;;;;47.62;12.79;100162.47;6182490;23;20029;-71
2021/07/10 05:33:26;;;;;;;7.35;5.32;;;;;;;48.31;12.29;100162.00;6183458;23;20028;-73
2021/07/10 05:35:52;;;;;;;13.00;5.53;;;;;;;48.90;11.92;100170.47;6182269;23;20004;-72
2021/07/10 05:38:18;;;;;;;12.75;5.60;;;;;;;49.37;11.18;100161.94;6156438;23;20015;-73
2021/07/10 05:40:43;;;;;;;7.82;6.00;;;;;;;49.95;10.85;100151.47;6156549;23;20013;-68
2021/07/10 05:43:10;;;;;;;9.63;6.10;;;;;;;50.25;10.84;100156.31;6155879;23;20044;-73
2021/07/10 05:45:35;;;;;;;8.95;5.70;;;;;;;50.56;10.53;100157.06;6156024;23;20009;-73
2021/07/10 05:48:01;;;;;;;7.53;5.47;;;;;;;51.26;10.08;100163.06;6182972;23;20001;-72
2021/07/10 05:50:27;;;;;;;9.35;5.95;;;;;;;50.65;10.21;100153.94;6156237;23;20005;-70
2021/07/10 05:52:53;;;;;;;14.48;6.13;;;;;;;50.18;10.80;100122.84;6182292;23;20005;-70
2021/07/10 05:55:18;;;;;;;10.18;5.50;;;;;;;50.40;10.39;100151.63;6156713;23;20009;-71
2021/07/10 05:57:44;;;;;;;8.45;6.47;;;;;;;49.97;10.72;100151.88;6182415;23;20005;-70
2021/07/10 06:00:11;;;;;;;7.20;5.88;;;;;;;49.84;10.96;100135.00;6183174;23;20012;-72
2021/07/10 06:02:38;;;;;;;7.10;5.65;;;;;;;50.60;10.68;100146.56;6183840;23;20012;-72
2021/07/10 06:05:04;;;;;;;7.72;5.80;;;;;;;51.32;9.76;100142.75;6182981;23;20001;-72
2021/07/10 06:07:30;;;;;;;8.13;5.57;;;;;;;52.27;9.36;100153.47;6184257;23;20028;-70
2021/07/10 06:09:56;;;;;;;9.13;6.05;;;;;;;53.03;8.58;100147.94;6185410;23;20072;-73
2021/07/10 06:12:21;;;;;;;11.85;6.13;;;;;;;53.85;8.26;100148.22;6185338;23;20192;-72
2021/07/10 06:14:47;;;;;;;14.10;7.60;;;;;;;54.08;7.71;100152.66;6184749;23;20041;-73
2021/07/10 06:17:12;;;;;;;10.98;6.93;;;;;;;54.26;7.60;100148.91;6184353;23;20009;-72
2021/07/10 06:19:37;;;;;;;9.07;6.43;;;;;;;54.58;7.79;100140.13;6185207;23;20032;-71
2021/07/10 06:22:03;;;;;;;7.63;6.72;;;;;;;55.22;7.30;100140.84;6184971;23;20011;-72
2021/07/10 06:24:29;;;;;;;12.82;7.57;;;;;;;55.57;6.62;100148.72;6158211;23;20331;-71
2021/07/10 06:26:54;;;;;;;18.02;7.47;;;;;;;55.98;6.90;100129.78;6191464;23;20029;-71
2021/07/10 06:29:20;;;;;;;14.15;7.22;;;;;;;56.57;6.13;100140.03;6192299;23;20071;-73
2021/07/10 06:31:45;;;;;;;13.27;7.25;;;;;;;57.11;5.90;100128.94;6158040;23;20116;-74
2021/07/10 06:34:11;;;;;;;11.65;7.60;;;;;;;57.30;5.75;100130.22;6158306;23;20001;-72
2021/07/10 06:36:39;;;;;;;13.30;7.22;;;;;;;57.63;5.87;100141.94;6184010;23;20028;-72
2021/07/10 06:39:05;;;;;;;8.60;7.40;;;;;;;57.81;5.31;100135.00;6184501;23;20013;-72
2021/07/10 06:41:30;;;;;;;12.45;8.00;;;;;;;58.01;5.20;100137.88;6184690;23;20318;-67
2021/07/10 06:43:56;;;;;;;12.15;7.82;;;;;;;58.28;5.15;100142.66;6185453;23;20001;-73
2021/07/10 06:46:21;;;;;;;17.08;8.30;;;;;;;58.40;5.03;100132.50;6185042;23;20075;-73
2021/07/10 06:48:47;;;;;;;16.23;8.07;;;;;;;58.98;5.05;100131.88;6184825;23;20027;-72
2021/07/10 06:51:12;;;;;;;10.32;8.80;;;;;;;59.51;4.62;100130.06;6184907;23;20052;-73
2021/07/10 06:53:39;;;;;;;11.20;8.38;;;;;;;60.05;4.13;100134.28;6184733;23;20080;-74
2021/07/10 06:56:05;;;;;;;16.08;9.40;;;;;;;60.42;3.83;100143.44;6184990;23;20068;-72
2021/07/10 06:58:30;;;;;;;10.90;9.48;;;;;;;60.84;3.90;100138.75;6184671;23;19998;-68
2021/07/10 07:00:56;;;;;;;16.27;9.80;;;;;;;61.23;3.17;100127.09;6184861;23;20051;-69
2021/07/10 07:03:21;;;;;;;11.27;10.15;;;;;;;61.15;3.15;100124.44;6184960;23;20020;-73
2021/07/10 07:05:47;;;;;;;12.32;10.57;;;;;;;61.17;3.69;100124.78;6191863;23;20016;-71
2021/07/10 07:08:13;;;;;;;19.58;9.80;;;;;;;61.38;3.85;100113.69;6198054;23;19997;-69
2021/07/10 07:10:39;;;;;;;12.73;11.07;;;;;;;61.54;3.28;100129.28;6185103;23;20089;-72
2021/07/10 07:13:05;;;;;;;13.75;11.45;;;;;;;61.84;3.59;100129.81;6157073;23;20052;-69
2021/07/10 07:15:31;;;;;;;13.75;12.50;;;;;;;61.92;2.88;100136.91;6183811;23;20009;-70
2021/07/10 07:17:56;;;;;;;15.50;13.18;;;;;;;61.96;3.21;100125.19;6183450;23;20020;-69
2021/07/10 07:20:21;;;;;;;15.25;14.00;;;;;;;62.04;2.78;100123.59;6183632;23;20024;-70
2021/07/10 07:22:48;;;;;;;15.20;13.80;;;;;;;62.20;3.27;100139.97;6157303;23;20327;-68
2021/07/10 07:25:17;;;;;;;14.93;13.82;;;;;;;61.90;2.97;100139.50;6157153;23;20431;-73
2021/07/10 07:27:42;;;;;;;15.07;13.60;;;;;;;62.14;2.78;100122.41;6183676;23;20319;-69
2021/07/10 07:30:09;;;;;;;16.20;14.80;;;;;;;62.25;3.20;100130.66;6157714;23;20080;-73
2021/07/10 07:32:35;;;;;;;17.10;15.60;;;;;;;62.19;3.12;100111.47;6183579;23;20005;-72
2021/07/10 07:35:05;;;;;;;17.40;16.00;;;;;;;62.45;2.94;100117.84;6183908;23;20005;-65
2021/07/10 07:37:31;;;;;;;17.63;15.98;;;;;;;62.48;2.55;100121.88;6183002;23;20032;-69
2021/07/10 07:39:57;;;;;;;16.05;14.60;;;;;;;61.99;2.79;100115.53;6183897;23;20004;-67
2021/07/10 07:42:22;;;;;;;15.98;14.77;;;;;;;59.32;4.29;100104.59;6156906;23;20099;-70
2021/07/10 07:44:48;;;;;;;15.48;14.05;;;;;;;58.34;4.35;100104.19;6183448;23;20304;-70
2021/07/10 07:47:16;;;;;;;12.32;11.07;;;;;;;58.24;4.54;100116.78;6182856;23;20012;-71
2021/07/10 07:49:43;;;;;;;12.55;11.35;;;;;;;58.13;5.04;100113.34;6183509;23;20036;-71
2021/07/10 07:52:08;;;;;;;11.52;10.32;;;;;;;58.17;4.67;100082.34;6182996;23;20012;-71
2021/07/10 07:54:35;;;;;;;10.35;9.55;;;;;;;58.85;3.71;100096.38;6183418;23;20005;-71
2021/07/10 07:57:01;;;;;;;10.73;9.82;;;;;;;56.62;5.24;100066.88;6183569;23;19997;-69
2021/07/10 07:59:26;;;;;;;10.05;8.50;;;;;;;53.03;7.07;100067.06;6184056;23;20083;-72
2021/07/10 08:01:52;;;;;;;8.73;7.97;;;;;;;49.79;9.53;100078.44;6183005;23;20441;-69
2021/07/10 08:04:17;;;;;;;7.45;6.60;;;;;;;48.10;10.89;100078.06;6183627;23;20436;-71
2021/07/10 08:06:43;;;;;;;6.78;6.03;;;;;;;47.11;11.61;100076.19;6183913;23;20008;-70
2021/07/10 08:09:09;;;;;;;9.02;6.30;;;;;;;46.79;11.91;100071.34;6157002;23;20088;-71
2021/07/10 08:11:35;;;;;;;8.43;6.25;;;;;;;46.75;12.04;100059.09;6132591;23;20398;-71
2021/07/10 08:14:01;;;;;;;10.55;6.13;;;;;;;46.26;12.23;100057.38;6156559;23;20051;-66
2021/07/10 08:16:26;;;;;;;7.25;5.93;;;;;;;47.35;11.66;100029.81;6156929;23;20013;-70
2021/07/10 08:18:52;;;;;;;11.15;6.07;;;;;;;48.62;10.58;100060.78;6157144;23;20489;-71
2021/07/10 08:21:19;;;;;;;11.77;6.28;;;;;;;48.96;10.12;100063.00;6182816;23;20005;-67
2021/07/10 08:23:44;;;;;;;6.70;5.93;;;;;;;48.25;10.51;100041.44;6182998;23;20460;-68
2021/07/10 08:26:10;;;;;;;6.95;6.22;;;;;;;47.79;11.33;100062.81;6183646;23;20033;-70
2021/07/10 08:28:37;;;;;;;9.98;5.90;;;;;;;45.96;12.36;100054.88;6183066;23;20139;-70
2021/07/10 08:31:03;;;;;;;7.68;6.72;;;;;;;44.02;13.62;100065.78;6131921;23;20432;-68
2021/07/10 08:33:29;;;;;;;8.90;6.43;;;;;;;42.67;14.60;100058.72;6183499;23;20016;-69
2021/07/10 08:35:54;;;;;;;10.70;6.50;;;;;;;41.83;16.28;100054.97;6157293;23;20419;-69
2021/07/10 08:38:20;;;;;;;10.07;6.50;;;;;;;41.22;16.64;100058.47;6183497;23;20008;-68
2021/07/10 08:40:46;;;;;;;8.10;6.38;;;;;;;40.65;16.95;100051.59;6182926;23;20060;-68
2021/07/10 08:43:12;;;;;;;9.68;6.65;;;;;;;40.18;17.95;100063.97;6181709;23;20005;-71
2021/07/10 08:45:39;;;;;;;7.80;6.55;;;;;;;39.68;18.49;100075.22;6180503;23;20001;-68
2021/07/10 08:48:05;;;;;;;7.13;6.45;;;;;;;39.29;20.14;100067.03;6129955;23;20060;-68
2021/07/10 08:50:32;;;;;;;9.57;7.10;;;;;;;39.08;19.69;100065.84;6180939;23;20001;-69
2021/07/10 08:52:58;;;;;;;7.70;6.57;;;;;;;38.83;19.82;100062.38;6180948;23;20410;-68
2021/07/10 08:55:23;;;;;;;11.02;6.57;;;;;;;38.43;19.64;100062.75;6181394;23;20478;-70
2021/07/10 08:57:50;;;;;;;8.40;6.70;;;;;;;38.33;20.28;100053.41;6182848;23;20320;-69
2021/07/10 09:00:38;;;;;;;9.23;6.10;;;;;;;38.63;19.02;100056.00;6182982;23;20056;-70
2021/07/10 09:03:05;;;;;;;9.25;6.72;;;;;;;38.41;19.81;100057.47;6182768;23;20108;-68
2021/07/10 09:05:32;;;;;;;7.55;6.70;;;;;;;38.18;19.84;100048.91;6183627;23;20028;-67
2021/07/10 09:08:24;;;;;;;11.25;6.97;;;;;;;38.20;19.04;100052.22;6157306;23;20008;-71
2021/07/10 09:10:57;;;;;;;9.32;6.97;;;;;;;37.70;20.37;100043.47;6183180;23;20009;-69
2021/07/10 09:13:50;;;;;;;9.20;6.97;;;;;;;37.77;19.69;100043.91;6182738;23;20524;-69
2021/07/10 09:16:32;;;;;;;8.25;6.55;;;;;;;37.67;20.52;100038.50;6183138;23;20024;-69
2021/07/10 09:19:07;;;;;;;7.75;6.82;;;;;;;37.85;19.98;100034.03;6183516;23;20091;-69
2021/07/10 09:21:35;;;;;;;8.43;7.05;;;;;;;37.83;20.16;100031.53;6182333;23;20009;-68
2021/07/10 09:24:05;;;;;;;7.40;6.70;;;;;;;37.73;19.70;100043.66;6182610;23;20005;-67
2021/07/10 09:26:31;;;;;;;8.32;6.43;;;;;;;37.49;19.66;100030.59;6182529;23;20008;-69
2021/07/10 09:28:59;;;;;;;9.52;7.13;;;;;;;37.32;19.90;100036.66;6182563;23;20060;-70
2021/07/10 09:31:28;;;;;;;7.38;6.82;;;;;;;37.14;20.14;100031.91;6187745;23;20005;-69
2021/07/10 09:34:00;;;;;;;7.47;6.88;;;;;;;36.81;20.56;100038.09;6192346;23;20016;-68
2021/07/10 09:36:26;;;;;;;7.97;6.85;;;;;;;36.20;21.31;100004.91;6190046;23;20024;-72
2021/07/10 09:38:53;;;;;;;8.27;6.93;;;;;;;36.18;21.57;100023.88;6195877;23;20025;-69
2021/07/10 09:41:29;;;;;;;9.48;7.72;;;;;;;36.45;20.90;100033.66;6191266;23;19997;-71
2021/07/10 09:44:13;;;;;;;8.15;6.78;;;;;;;36.75;20.40;100037.31;6195123;23;20056;-70
2021/07/10 09:46:40;;;;;;;10.27;7.65;;;;;;;36.77;20.18;100023.88;6158206;23;20005;-70
2021/07/10 09:49:23;;;;;;;7.65;7.05;;;;;;;37.17;20.31;100020.13;6182743;23;20071;-69
2021/07/10 09:51:57;;;;;;;8.27;7.47;;;;;;;37.31;20.39;100025.81;6183423;23;20005;-68
2021/07/10 09:54:28;;;;;;;8.40;7.10;;;;;;;37.26;20.05;100023.91;6185046;23;20005;-67
2021/07/10 09:57:02;;;;;;;9.25;6.95;;;;;;;37.10;20.48;100020.50;6158328;23;20005;-68
2021/07/10 09:59:28;;;;;;;8.05;7.32;;;;;;;36.81;20.45;100012.13;6184597;23;20036;-68
2021/07/10 10:01:53;;;;;;;8.73;7.93;;;;;;;36.65;21.20;100008.69;6184845;23;20282;-69
2021/07/10 10:04:30;;;;;;;8.13;7.38;;;;;;;36.86;20.25;100014.88;6157897;23;20017;-66
2021/07/10 10:07:00;;;;;;;8.95;6.78;;;;;;;36.97;20.28;100013.63;6184198;23;20001;-65
2021/07/10 10:09:31;;;;;;;7.35;6.68;;;;;;;36.91;20.25;99996.13;6158380;23;20005;-69
2021/07/10 10:12:01;;;;;;;9.90;7.85;;;;;;;37.06;21.19;100011.88;6158599;23;20063;-66
2021/07/10 10:14:30;;;;;;;7.90;7.25;;;;;;;36.73;21.82;100014.47;6184564;23;20025;-70
2021/07/10 10:16:58;;;;;;;8.05;7.43;;;;;;;36.45;22.25;100005.78;6157682;23;20056;-69
2021/07/10 10:19:26;;;;;;;9.88;7.55;;;;;;;36.34;22.36;100012.56;6182611;23;20012;-69
2021/07/10 10:21:55;;;;;;;7.97;6.85;;;;;;;36.02;22.34;99991.69;6185032;23;20439;-70
2021/07/10 10:24:22;;;;;;;8.00;7.30;;;;;;;35.95;22.75;100005.06;6158592;23;20013;-70
2021/07/10 10:26:48;;;;;;;8.02;7.03;;;;;;;35.75;22.86;99990.19;6184707;23;20087;-72
2021/07/10 10:29:16;;;;;;;8.50;7.25;;;;;;;35.75;23.70;100009.66;6184454;23;20001;-68
2021/07/10 10:31:43;;;;;;;8.60;6.88;;;;;;;35.54;24.10;100001.44;6185079;23;20005;-69
2021/07/10 10:34:10;;;;;;;8.57;7.38;;;;;;;35.34;24.17;100005.97;6184361;23;20055;-69
2021/07/10 10:36:37;;;;;;;9.02;7.28;;;;;;;35.31;24.33;100000.13;6184130;23;20420;-64
2021/07/10 10:39:09;;;;;;;8.50;7.63;;;;;;;35.46;24.64;99997.28;6158623;23;20009;-68
2021/07/10 10:41:47;;;;;;;9.15;8.25;;;;;;;35.61;23.79;99998.34;6185106;23;20088;-68
2021/07/10 10:44:13;;;;;;;7.72;6.95;;;;;;;35.55;23.49;99986.41;6184733;23;20005;-69
2021/07/10 10:46:57;;;;;;;8.23;7.47;;;;;;;35.94;22.45;99993.09;6184008;23;20001;-70
2021/07/10 10:49:34;;;;;;;9.27;7.35;;;;;;;36.26;22.15;99990.91;6158371;23;20427;-70
2021/07/10 10:52:24;;;;;;;7.85;7.05;;;;;;;36.68;22.36;99994.16;6184527;23;20087;-70
2021/07/10 10:55:09;;;;;;;7.95;7.13;;;;;;;36.90;21.97;99991.66;6184551;23;20005;-68
2021/07/10 10:57:39;;;;;;;10.88;7.55;;;;;;;36.94;22.79;99989.13;6184516;23;20005;-68
2021/07/10 11:00:27;;;;;;;9.80;7.90;;;;;;;37.00;22.54;99992.66;6184982;23;20025;-68
2021/07/10 11:03:02;;;;;;;15.27;7.68;;;;;;;36.91;22.81;99986.94;6184509;23;20005;-69
2021/07/10 11:05:31;;;;;;;8.00;7.20;;;;;;;36.63;23.15;99995.88;6184478;23;20060;-68
2021/07/10 11:08:18;;;;;;;8.45;7.20;;;;;;;36.58;23.46;99992.31;6184517;23;20040;-69
2021/07/10 11:10:46;;;;;;;8.52;7.38;;;;;;;36.17;24.01;99988.78;6157458;23;20470;-68
2021/07/10 11:13:32;;;;;;;8.50;7.80;;;;;;;36.18;23.65;99987.66;6183834;23;20067;-68
2021/07/10 11:16:16;;;;;;;7.65;7.15;;;;;;;36.03;24.21;99982.19;6132698;23;20098;-67
2021/07/10 11:19:05;;;;;;;9.38;7.50;;;;;;;35.85;23.95;99984.53;6184035;23;20024;-68
2021/07/10 11:21:34;;;;;;;8.50;7.18;;;;;;;35.50;24.68;99980.84;6183665;23;20044;-68
2021/07/10 11:26:56;;;;;;;7.75;6.82;;;;;;;34.77;25.58;99991.41;6184314;23;20005;-66